Time;durP1;ratioP1;P1;durP2;ratioP2;P2;SDS_P1;SDS_P2;PMS_P1;PMS_P2;Temp;Humidity;BMP_temperature;BMP_pressure;BME280_temperature;BME280_humidity;BME280_pressure;Samples;Min_cycle;Max_cycle;Signal;HPM_P1;HPM_P2
2022/09/01 00:01:51;;;;;;;14.38;7.53;;;18.60;99.90;;;;;;6308893;22;20010;-88
2022/09/01 00:04:25;;;;;;;19.02;8.43;;;19.50;99.90;;;;;;6336234;22;20002;-92
2022/09/01 00:06:53;;;;;;;25.83;6.75;;;19.10;99.90;;;;;;6336023;22;20003;-92
2022/09/01 00:09:28;;;;;;;13.30;7.28;;;19.30;99.90;;;;;;6308204;22;19999;-91
2022/09/01 00:11:54;;;;;;;16.50;7.68;;;19.30;99.90;;;;;;6335730;22;20005;-89
2022/09/01 00:14:27;;;;;;;15.15;7.75;;;18.90;99.90;;;;;;6308461;22;20007;-89
2022/09/01 00:16:53;;;;;;;11.95;7.18;;;20.10;99.90;;;;;;6335655;22;20052;-89
2022/09/01 00:19:20;;;;;;;14.90;7.35;;;19.30;99.90;;;;;;6307653;22;20002;-91
2022/09/01 00:21:46;;;;;;;13.10;7.28;;;18.80;99.90;;;;;;6307796;22;20047;-90
2022/09/01 00:24:15;;;;;;;17.23;6.75;;;19.20;99.90;;;;;;6309267;22;20021;-90
2022/09/01 00:26:41;;;;;;;12.90;6.30;;;19.40;99.90;;;;;;6336606;22;20073;-89
2022/09/01 00:29:07;;;;;;;19.17;7.25;;;18.90;99.90;;;;;;6308188;22;20450;-88
2022/09/01 00:31:33;;;;;;;15.15;6.32;;;19.20;99.90;;;;;;6308736;22;20003;-91
2022/09/01 00:34:00;;;;;;;9.57;5.95;;;19.20;99.90;;;;;;6337795;22;19999;-89
2022/09/01 00:36:25;;;;;;;18.63;6.65;;;18.70;99.90;;;;;;6357539;22;20007;-88
2022/09/01 00:38:51;;;;;;;17.95;6.40;;;18.90;99.90;;;;;;6332786;22;19990;-90
2022/09/01 00:41:20;;;;;;;12.48;5.95;;;18.40;99.90;;;;;;6363636;22;20013;-89
2022/09/01 00:44:01;;;;;;;14.00;5.80;;;18.40;99.90;;;;;;6347263;22;20010;-91
2022/09/01 00:46:37;;;;;;;14.73;6.95;;;16.20;99.90;;;;;;6310314;22;20010;-87
2022/09/01 00:49:27;;;;;;;13.15;7.20;;;18.30;99.90;;;;;;6335667;22;19998;-89
2022/09/01 00:51:58;;;;;;;15.50;6.78;;;18.40;99.90;;;;;;6335908;22;20003;-90
2022/09/01 00:54:30;;;;;;;12.43;6.45;;;17.90;99.90;;;;;;6307602;22;20007;-90
2022/09/01 00:56:56;;;;;;;14.02;6.65;;;17.20;99.90;;;;;;6307172;22;20041;-89
2022/09/01 00:59:23;;;;;;;12.18;6.28;;;18.20;99.90;;;;;;6335129;22;20435;-91
2022/09/01 01:01:49;;;;;;;15.70;6.32;;;17.90;99.90;;;;;;6307734;22;20007;-89
2022/09/01 01:04:15;;;;;;;19.58;7.00;;;18.40;99.90;;;;;;6309071;22;20003;-88
2022/09/01 01:06:48;;;;;;;13.02;6.70;;;18.80;99.90;;;;;;6308240;22;20007;-89
2022/09/01 01:09:20;;;;;;;14.70;6.60;;;17.90;99.90;;;;;;6308507;22;20007;-90
2022/09/01 01:11:48;;;;;;;10.23;7.13;;;17.80;99.90;;;;;;6335890;22;20389;-91
2022/09/01 01:14:16;;;;;;;11.63;6.33;;;17.80;99.90;;;;;;6308737;22;20052;-88
2022/09/01 01:16:44;;;;;;;;;;;17.70;99.90;;;;;;6307685;22;20085;-89
2022/09/01 01:24:54;;;;;;;12.10;7.10;;;17.60;99.90;;;;;;6335130;22;20060;-88
2022/09/01 01:27:20;;;;;;;13.10;7.82;;;17.50;99.90;;;;;;6307196;22;20503;-88
2022/09/01 01:29:51;;;;;;;14.68;7.57;;;17.50;99.90;;;;;;6307835;22;20006;-92
2022/09/01 01:32:17;;;;;;;15.35;7.07;;;17.60;99.90;;;;;;6337530;22;20074;-90
2022/09/01 01:34:45;;;;;;;19.55;8.95;;;17.60;99.90;;;;;;6308112;22;20038;-90
2022/09/01 01:37:13;;;;;;;;;;;15.60;99.90;;;;;;6308265;22;19999;-91
2022/09/01 01:39:41;;;;;;;22.97;8.30;;;17.50;99.90;;;;;;6308332;22;19981;-90
2022/09/01 01:42:11;;;;;;;19.23;8.23;;;17.50;99.90;;;;;;6308307;22;20093;-89
2022/09/01 01:44:37;;;;;;;14.30;7.18;;;18.00;99.90;;;;;;6308120;22;20447;-90
2022/09/01 01:47:11;;;;;;;14.07;7.38;;;17.50;99.90;;;;;;6335580;22;20007;-91
2022/09/01 01:49:42;;;;;;;14.95;7.25;;;17.90;99.90;;;;;;6335704;22;20423;-93
2022/09/01 01:52:16;;;;;;;16.15;7.68;;;17.60;99.90;;;;;;6334869;22;19999;-89
2022/09/01 01:54:44;;;;;;;14.20;7.50;;;17.80;99.90;;;;;;6306624;22;20339;-88
2022/09/01 01:57:13;;;;;;;12.93;7.43;;;17.40;99.90;;;;;;6306926;22;20114;-90
2022/09/01 01:59:39;;;;;;;13.88;7.82;;;17.40;99.90;;;;;;6307771;22;20011;-91
2022/09/01 02:02:08;;;;;;;15.43;8.90;;;18.40;99.90;;;;;;6307277;22;20048;-90
2022/09/01 02:04:34;;;;;;;15.02;9.00;;;17.30;99.90;;;;;;6307349;22;20003;-89
2022/09/01 02:07:00;;;;;;;11.93;7.90;;;17.30;99.90;;;;;;6307868;22;20026;-89
2022/09/01 02:09:26;;;;;;;13.23;7.50;;;17.40;99.90;;;;;;6335245;22;20336;-90
2022/09/01 02:11:56;;;;;;;11.73;7.15;;;17.30;99.90;;;;;;6307841;22;20010;-89
2022/09/01 02:14:22;;;;;;;12.23;7.03;;;17.30;99.90;;;;;;6308137;22;20003;-89
2022/09/01 02:16:48;;;;;;;13.40;7.28;;;18.40;99.90;;;;;;6336225;22;20070;-90
2022/09/01 02:19:18;;;;;;;13.35;7.65;;;17.30;99.90;;;;;;6335440;22;19995;-90
2022/09/01 02:21:50;;;;;;;13.52;7.25;;;17.40;99.90;;;;;;6335667;22;20006;-91
2022/09/01 02:24:16;;;;;;;14.52;6.60;;;17.40;99.90;;;;;;6308722;22;20324;-91
2022/09/01 02:26:47;;;;;;;14.68;8.57;;;17.40;99.90;;;;;;6307223;22;20499;-88
2022/09/01 02:29:20;;;;;;;14.02;7.45;;;17.40;99.90;;;;;;6308451;22;20013;-88
2022/09/01 02:31:49;;;;;;;14.63;8.15;;;17.40;99.90;;;;;;6336551;22;20343;-88
2022/09/01 02:34:15;;;;;;;21.63;8.55;;;17.30;99.90;;;;;;6336186;22;19999;-90
2022/09/01 02:36:50;;;;;;;14.52;8.23;;;17.20;99.90;;;;;;6308565;22;20003;-88
2022/09/01 02:39:22;;;;;;;15.40;8.32;;;17.20;99.90;;;;;;6335929;22;20019;-89
2022/09/01 02:41:48;;;;;;;16.45;8.00;;;17.20;99.90;;;;;;6310361;22;20389;-92
2022/09/01 02:44:14;;;;;;;16.60;6.82;;;17.20;99.90;;;;;;6309743;22;20002;-90
2022/09/01 02:46:44;;;;;;;9.70;7.07;;;17.10;99.90;;;;;;6337205;22;20060;-90
2022/09/01 02:49:28;;;;;;;11.85;7.55;;;17.20;99.90;;;;;;6337351;22;19995;-89
2022/09/01 02:51:58;;;;;;;11.07;8.35;;;17.90;99.90;;;;;;6336855;22;19999;-88
2022/09/01 02:54:26;;;;;;;11.25;6.78;;;17.10;99.90;;;;;;6336709;22;20443;-89
2022/09/01 02:56:53;;;;;;;12.63;7.43;;;17.20;99.90;;;;;;6337359;22;20003;-89
2022/09/01 02:59:21;;;;;;;12.52;6.93;;;17.10;99.90;;;;;;6310831;22;20028;-92
2022/09/01 03:01:49;;;;;;;13.95;7.60;;;17.10;99.90;;;;;;6310130;22;20007;-89
2022/09/01 03:04:15;;;;;;;;;;;17.10;99.90;;;;;;6309377;22;20431;-91
2022/09/01 03:06:41;;;;;;;12.80;8.27;;;17.60;99.90;;;;;;6337021;22;19905;-86
2022/09/01 03:09:13;;;;;;;10.25;6.78;;;17.00;99.90;;;;;;6337248;22;20002;-91
2022/09/01 03:11:42;;;;;;;16.10;7.22;;;17.00;99.90;;;;;;6337232;22;20313;-89
2022/09/01 03:14:08;;;;;;;9.80;7.32;;;17.40;99.90;;;;;;6309695;22;19999;-91
2022/09/01 03:16:36;;;;;;;11.60;8.30;;;17.00;99.90;;;;;;6309207;22;20002;-89
2022/09/01 03:19:06;;;;;;;10.27;8.00;;;17.30;99.90;;;;;;6338908;22;20073;-91
2022/09/01 03:21:32;;;;;;;15.60;9.45;;;16.90;99.90;;;;;;6355661;22;20003;-89
2022/09/01 03:24:00;;;;;;;13.95;8.60;;;17.20;99.90;;;;;;6336700;22;20063;-90
2022/09/01 03:26:26;;;;;;;14.00;8.95;;;16.90;99.90;;;;;;6337006;22;20002;-89
2022/09/01 03:28:52;;;;;;;14.00;9.77;;;16.90;99.90;;;;;;6323316;22;20002;-90
2022/09/01 03:31:19;;;;;;;15.65;9.27;;;16.80;99.90;;;;;;6340158;22;19995;-90
2022/09/01 03:33:45;;;;;;;21.27;9.63;;;16.40;99.90;;;;;;6309825;22;20473;-89
2022/09/01 03:36:18;;;;;;;22.05;8.82;;;16.80;99.90;;;;;;6336739;22;20071;-90
2022/09/01 03:38:47;;;;;;;12.90;8.77;;;17.10;99.90;;;;;;6309071;22;20328;-89
2022/09/01 03:41:16;;;;;;;10.48;8.90;;;17.10;99.90;;;;;;6335931;22;20011;-89
2022/09/01 03:43:43;;;;;;;13.57;6.93;;;16.80;99.90;;;;;;6336613;22;20073;-89
2022/09/01 03:46:15;;;;;;;9.85;6.22;;;16.70;99.90;;;;;;6308547;22;20007;-90
2022/09/01 03:48:41;;;;;;;9.15;5.75;;;16.70;99.90;;;;;;6337044;22;20013;-90
2022/09/01 03:51:08;;;;;;;12.48;6.10;;;17.00;99.90;;;;;;6308817;22;20442;-90
2022/09/01 03:53:36;;;;;;;7.20;5.40;;;16.70;99.90;;;;;;6308783;22;20295;-92
2022/09/01 03:56:03;;;;;;;13.43;6.28;;;16.80;99.90;;;;;;6309256;22;19999;-91
2022/09/01 03:58:29;;;;;;;13.65;6.30;;;16.70;99.90;;;;;;6336231;22;20009;-90
2022/09/01 04:00:58;;;;;;;15.13;7.88;;;16.70;99.90;;;;;;6336756;22;20042;-89
2022/09/01 04:03:29;;;;;;;15.88;6.25;;;16.70;99.90;;;;;;6337108;22;20043;-90
2022/09/01 04:05:57;;;;;;;15.25;6.97;;;17.20;99.90;;;;;;6337586;22;20059;-90
2022/09/01 04:08:26;;;;;;;13.18;7.32;;;16.80;99.90;;;;;;6338122;22;19995;-88
2022/09/01 04:10:53;;;;;;;12.52;8.38;;;16.80;99.90;;;;;;6309638;22;20007;-90
2022/09/01 04:13:25;;;;;;;17.52;8.10;;;17.30;99.90;;;;;;6307969;22;20037;-90
2022/09/01 04:15:51;;;;;;;16.17;7.35;;;16.70;99.90;;;;;;6308052;22;19999;-89
2022/09/01 04:18:22;;;;;;;18.00;8.40;;;16.90;99.90;;;;;;6335685;22;20003;-90
2022/09/01 04:20:58;;;;;;;13.88;8.90;;;16.60;99.90;;;;;;6308496;22;20585;-89
2022/09/01 04:23:35;;;;;;;16.83;9.38;;;16.60;99.90;;;;;;6332347;22;20077;-89
2022/09/01 04:26:10;;;;;;;15.60;9.43;;;16.50;99.90;;;;;;6334378;22;20002;-90
2022/09/01 04:28:44;;;;;;;17.20;10.18;;;16.40;99.90;;;;;;6334062;22;20049;-88
2022/09/01 04:31:13;;;;;;;18.92;10.20;;;16.50;99.90;;;;;;6334946;22;19999;-90
2022/09/01 04:33:39;;;;;;;14.43;9.23;;;16.40;99.90;;;;;;6306731;22;20002;-91
2022/09/01 04:36:21;;;;;;;22.77;9.88;;;16.70;99.90;;;;;;6307569;22;20002;-88
2022/09/01 04:38:49;;;;;;;13.48;8.07;;;16.80;99.90;;;;;;6335298;22;20006;-88
2022/09/01 04:41:16;;;;;;;17.60;8.65;;;16.40;99.90;;;;;;6308003;22;20089;-88
2022/09/01 04:43:44;;;;;;;17.87;10.20;;;16.40;99.90;;;;;;6335190;22;19999;-87
2022/09/01 04:46:13;;;;;;;17.02;9.90;;;16.40;99.90;;;;;;6307721;22;20030;-88
2022/09/01 04:48:41;;;;;;;16.80;9.45;;;16.30;99.90;;;;;;6307987;22;20007;-89
2022/09/01 04:51:09;;;;;;;15.05;9.82;;;16.50;99.90;;;;;;6335013;22;20009;-88
2022/09/01 04:53:35;;;;;;;13.80;8.80;;;16.40;99.90;;;;;;6307027;22;20090;-88
2022/09/01 04:56:06;;;;;;;18.55;9.07;;;16.70;99.90;;;;;;6334352;22;20381;-88
2022/09/01 04:58:32;;;;;;;16.85;9.82;;;;;;;;;;6334956;22;19998;-87
2022/09/01 05:01:00;;;;;;;17.23;8.75;;;16.30;99.90;;;;;;6335461;22;20035;-91
2022/09/01 05:03:30;;;;;;;15.50;8.25;;;17.00;99.90;;;;;;6335078;22;19995;-88
2022/09/01 05:06:02;;;;;;;15.30;8.45;;;;;;;;;;6334904;22;19998;-87
2022/09/01 05:08:28;;;;;;;13.32;7.78;;;14.70;99.90;;;;;;6335030;22;20006;-88
2022/09/01 05:10:55;;;;;;;16.77;8.65;;;16.30;99.90;;;;;;6306807;22;20002;-86
2022/09/01 05:13:22;;;;;;;15.65;9.10;;;16.40;99.90;;;;;;6334013;22;20002;-90
2022/09/01 05:16:03;;;;;;;21.58;9.35;;;16.40;99.90;;;;;;6333899;22;20048;-87
2022/09/01 05:18:29;;;;;;;20.33;8.80;;;16.40;99.90;;;;;;6335154;22;19999;-87
2022/09/01 05:20:56;;;;;;;13.48;8.60;;;16.40;99.90;;;;;;6333438;22;20011;-86
2022/09/01 05:23:22;;;;;;;18.00;8.63;;;16.40;99.90;;;;;;6333994;22;20070;-88
2022/09/01 05:25:53;;;;;;;17.27;7.65;;;16.40;99.90;;;;;;6334029;22;20424;-87
2022/09/01 05:28:23;;;;;;;15.30;6.97;;;16.40;99.90;;;;;;6333692;22;20003;-87
2022/09/01 05:30:52;;;;;;;19.90;7.13;;;16.40;99.90;;;;;;6333659;22;20049;-87
2022/09/01 05:33:20;;;;;;;17.60;7.50;;;16.40;99.90;;;;;;6334142;22;20330;-87
2022/09/01 05:36:00;;;;;;;13.10;6.70;;;16.70;99.90;;;;;;6306371;22;20003;-86
2022/09/01 05:38:30;;;;;;;16.65;6.22;;;16.40;99.90;;;;;;6335279;22;20005;-87
2022/09/01 05:40:57;;;;;;;15.90;6.32;;;16.50;99.90;;;;;;6333770;22;20017;-87
2022/09/01 05:43:26;;;;;;;11.20;6.25;;;16.50;99.90;;;;;;6334374;22;20443;-87
2022/09/01 05:45:53;;;;;;;23.73;6.40;;;16.50;99.90;;;;;;6334119;22;20010;-87
2022/09/01 05:48:20;;;;;;;12.27;5.97;;;16.50;99.90;;;;;;6333692;22;20005;-86
2022/09/01 05:50:48;;;;;;;10.93;6.20;;;16.60;99.90;;;;;;6334067;22;19998;-86
2022/09/01 05:53:16;;;;;;;11.90;6.20;;;16.50;99.90;;;;;;6306124;22;20003;-87
2022/09/01 05:55:47;;;;;;;11.43;6.20;;;16.60;99.90;;;;;;6333814;22;20056;-87
2022/09/01 05:58:15;;;;;;;18.00;6.70;;;16.60;99.90;;;;;;6334061;22;20490;-87
2022/09/01 06:00:48;;;;;;;12.93;7.28;;;16.70;99.90;;;;;;6334536;22;20007;-87
2022/09/01 06:03:15;;;;;;;19.52;7.03;;;16.70;99.90;;;;;;6334681;22;20006;-87
2022/09/01 06:05:41;;;;;;;15.57;7.20;;;16.80;99.90;;;;;;6346522;22;20048;-87
2022/09/01 06:08:09;;;;;;;12.68;6.93;;;16.90;99.90;;;;;;6344123;22;20245;-86
2022/09/01 06:10:38;;;;;;;13.80;6.75;;;16.90;99.90;;;;;;6324932;22;20003;-86
2022/09/01 06:13:08;;;;;;;20.52;8.20;;;16.90;99.90;;;;;;6343681;22;20434;-87
2022/09/01 06:15:37;;;;;;;19.83;7.07;;;17.00;99.90;;;;;;6306544;22;20018;-87
2022/09/01 06:18:05;;;;;;;14.25;7.20;;;17.00;99.90;;;;;;6334866;22;20003;-87
2022/09/01 06:20:32;;;;;;;11.68;5.78;;;17.10;99.90;;;;;;6306676;22;20045;-88
2022/09/01 06:22:58;;;;;;;13.23;6.15;;;17.20;99.90;;;;;;6333729;22;20048;-87
2022/09/01 06:25:29;;;;;;;11.35;5.70;;;17.30;99.90;;;;;;6333699;22;20212;-87
2022/09/01 06:27:55;;;;;;;13.48;5.85;;;17.30;99.90;;;;;;6305813;22;20013;-86
2022/09/01 06:30:25;;;;;;;15.10;6.25;;;17.40;99.90;;;;;;6333590;22;19999;-87
2022/09/01 06:32:52;;;;;;;16.38;6.15;;;17.40;99.90;;;;;;6333474;22;20022;-87
2022/09/01 06:35:18;;;;;;;11.13;6.40;;;17.50;99.90;;;;;;6333834;22;20069;-86
2022/09/01 06:37:45;;;;;;;15.65;6.55;;;17.50;99.90;;;;;;6334015;22;20323;-87
2022/09/01 06:40:18;;;;;;;15.27;6.72;;;17.50;99.90;;;;;;6333577;22;19998;-88
2022/09/01 06:42:49;;;;;;;20.65;6.30;;;17.50;99.90;;;;;;6333530;22;20002;-87
2022/09/01 06:45:17;;;;;;;15.60;6.13;;;17.50;99.90;;;;;;6333423;22;19995;-87
2022/09/01 06:47:44;;;;;;;14.73;6.47;;;17.60;99.90;;;;;;6333512;22;20003;-88
2022/09/01 06:50:15;;;;;;;19.38;6.72;;;17.60;99.90;;;;;;6333638;22;19998;-87
2022/09/01 06:52:41;;;;;;;25.10;6.65;;;17.70;99.90;;;;;;6333449;22;20033;-87
2022/09/01 06:55:09;;;;;;;18.00;7.10;;;17.80;99.90;;;;;;6333749;22;20010;-87
2022/09/01 06:57:36;;;;;;;18.50;7.05;;;17.90;99.90;;;;;;6334525;22;20006;-87
2022/09/01 07:00:19;;;;;;;21.65;7.68;;;17.90;99.90;;;;;;6334135;22;20086;-87
2022/09/01 07:02:54;;;;;;;19.25;7.15;;;18.00;99.90;;;;;;6305744;22;20395;-87
2022/09/01 07:05:20;;;;;;;17.38;6.93;;;18.30;99.90;;;;;;6306077;22;20484;-87
2022/09/01 07:07:49;;;;;;;16.92;6.95;;;18.00;99.90;;;;;;6333382;22;19995;-88
2022/09/01 07:10:19;;;;;;;15.05;6.57;;;18.10;99.90;;;;;;6333378;22;20007;-86
2022/09/01 07:12:46;;;;;;;12.70;6.50;;;18.10;99.90;;;;;;6305535;22;19998;-87
2022/09/01 07:15:16;;;;;;;15.82;6.50;;;18.10;99.90;;;;;;6333830;22;20007;-88
2022/09/01 07:17:54;;;;;;;12.93;6.95;;;18.20;99.90;;;;;;6307657;22;20026;-87
2022/09/01 07:20:22;;;;;;;19.20;7.70;;;18.20;99.90;;;;;;6307299;22;20015;-89
2022/09/01 07:22:48;;;;;;;22.33;6.88;;;18.20;99.90;;;;;;6334681;22;20006;-87
2022/09/01 07:25:16;;;;;;;11.60;6.28;;;18.20;99.90;;;;;;6334784;22;20055;-88
2022/09/01 07:27:47;;;;;;;17.48;6.82;;;18.20;99.90;;;;;;6335101;22;19995;-87
2022/09/01 07:30:14;;;;;;;20.73;7.40;;;18.30;99.90;;;;;;6307206;22;20347;-87
2022/09/01 07:32:42;;;;;;;21.13;7.80;;;18.30;99.90;;;;;;6334890;22;20002;-86
2022/09/01 07:35:08;;;;;;;16.75;7.47;;;18.40;99.90;;;;;;6335823;22;20486;-88
2022/09/01 07:37:37;;;;;;;17.23;7.75;;;18.40;99.90;;;;;;6335713;22;20031;-88
2022/09/01 07:40:10;;;;;;;21.58;7.88;;;18.40;99.90;;;;;;6336125;22;20059;-91
2022/09/01 07:42:38;;;;;;;14.00;8.00;;;18.40;99.90;;;;;;6335995;22;20427;-87
2022/09/01 07:45:09;;;;;;;19.88;7.78;;;18.60;99.90;;;;;;6308134;22;20015;-87
2022/09/01 07:47:35;;;;;;;26.20;7.53;;;18.70;99.90;;;;;;6308332;22;19999;-87
2022/09/01 07:50:07;;;;;;;13.68;6.90;;;18.80;99.90;;;;;;6334479;22;20010;-88
2022/09/01 07:52:42;;;;;;;18.95;7.32;;;18.70;99.90;;;;;;6334824;22;19995;-88
2022/09/01 07:55:12;;;;;;;18.27;7.57;;;18.70;99.90;;;;;;6336379;22;20068;-87
2022/09/01 07:57:44;;;;;;;13.93;7.20;;;18.70;99.90;;;;;;6335685;22;20002;-87
2022/09/01 08:00:14;;;;;;;20.75;7.93;;;19.00;99.90;;;;;;6334543;22;20015;-87
2022/09/01 08:02:43;;;;;;;11.82;7.13;;;19.10;99.90;;;;;;6334401;22;20015;-87
2022/09/01 08:05:16;;;;;;;14.38;7.72;;;19.20;99.90;;;;;;6335658;22;20007;-86
2022/09/01 08:07:46;;;;;;;11.70;7.53;;;19.30;99.90;;;;;;6334812;22;20427;-88
2022/09/01 08:10:11;;;;;;;21.98;7.97;;;19.20;99.90;;;;;;6306924;22;20003;-87
2022/09/01 08:12:38;;;;;;;22.48;7.50;;;19.20;99.90;;;;;;6335420;22;20003;-87
2022/09/01 08:15:06;;;;;;;16.08;7.55;;;19.20;99.90;;;;;;6334549;22;20036;-88
2022/09/01 08:17:31;;;;;;;;;;;19.30;99.90;;;;;;6335637;22;19995;-87
2022/09/01 08:19:57;;;;;;;16.92;8.43;;;19.20;99.90;;;;;;6334411;22;19929;-87
2022/09/01 08:22:24;;;;;;;18.25;8.10;;;19.20;99.90;;;;;;6334754;22;20033;-87
2022/09/01 08:24:51;;;;;;;16.63;8.50;;;19.20;99.90;;;;;;6334510;22;20432;-88
2022/09/01 08:27:18;;;;;;;18.80;9.05;;;19.10;99.90;;;;;;6334831;22;20426;-87
2022/09/01 08:29:44;;;;;;;24.25;9.82;;;19.00;99.90;;;;;;6334223;22;20011;-88
2022/09/01 08:32:10;;;;;;;24.75;10.65;;;19.10;99.90;;;;;;6308265;22;20321;-87
2022/09/01 08:34:36;;;;;;;21.42;8.75;;;19.10;99.90;;;;;;6335312;22;20013;-87
2022/09/01 08:37:03;;;;;;;17.15;9.65;;;19.10;99.90;;;;;;6334719;22;20002;-87
2022/09/01 08:39:29;;;;;;;18.40;9.33;;;19.10;99.90;;;;;;6334720;22;20331;-88
2022/09/01 08:42:17;;;;;;;16.65;9.07;;;19.10;99.90;;;;;;6306887;22;20002;-88
2022/09/01 08:45:01;;;;;;;18.52;10.45;;;19.10;99.90;;;;;;6335189;22;20006;-87
2022/09/01 08:47:28;;;;;;;21.35;9.82;;;19.10;99.90;;;;;;6336396;22;19999;-87
2022/09/01 08:49:55;;;;;;;24.38;10.18;;;19.10;99.90;;;;;;6351792;22;20022;-86
2022/09/01 08:52:33;;;;;;;20.55;10.35;;;19.20;99.90;;;;;;6327009;22;20003;-86
2022/09/01 08:55:34;;;;;;;35.92;11.38;;;19.20;99.90;;;;;;6362544;22;19979;-87
2022/09/01 08:58:02;;;;;;;26.55;10.40;;;19.10;99.90;;;;;;6343237;22;20003;-87
2022/09/01 09:00:38;;;;;;;27.23;10.65;;;19.00;99.90;;;;;;6310696;22;20097;-87
2022/09/01 09:03:15;;;;;;;25.98;13.02;;;19.10;99.90;;;;;;6334639;22;20003;-87
2022/09/01 09:06:09;;;;;;;21.05;11.65;;;19.20;99.90;;;;;;6308104;22;20007;-88
2022/09/01 09:08:56;;;;;;;25.80;10.35;;;19.30;99.90;;;;;;6336160;22;20071;-88
2022/09/01 09:11:37;;;;;;;22.50;11.27;;;19.40;99.90;;;;;;6334259;22;20442;-89
2022/09/01 09:14:22;;;;;;;24.98;11.38;;;19.40;99.90;;;;;;6334575;22;20321;-89
2022/09/01 09:16:52;;;;;;;22.90;11.77;;;19.60;99.90;;;;;;6306488;22;20002;-89
2022/09/01 09:19:18;;;;;;;20.52;11.90;;;;;;;;;;6306701;22;20452;-89
2022/09/01 09:21:47;;;;;;;28.75;12.35;;;19.60;99.90;;;;;;6306579;22;20034;-88
2022/09/01 09:24:18;;;;;;;19.55;11.75;;;19.60;99.90;;;;;;6335693;22;19995;-88
2022/09/01 09:26:52;;;;;;;21.02;10.82;;;19.60;99.90;;;;;;6306603;22;20422;-89
2022/09/01 09:29:20;;;;;;;24.05;11.13;;;;;;;;;;6334939;22;20504;-88
2022/09/01 09:31:49;;;;;;;21.73;11.38;;;19.80;99.90;;;;;;6334384;22;20044;-88
2022/09/01 09:34:26;;;;;;;23.75;11.95;;;19.80;99.90;;;;;;6334021;22;19999;-89
2022/09/01 09:36:53;;;;;;;22.23;11.25;;;;;;;;;;6334520;22;20427;-89
2022/09/01 09:39:18;;;;;;;23.80;11.30;;;19.70;99.90;;;;;;6334324;22;20003;-88
2022/09/01 09:42:06;;;;;;;22.58;11.00;;;19.80;99.90;;;;;;6307133;22;20021;-89
2022/09/01 09:44:32;;;;;;;;;;;19.80;99.90;;;;;;6334693;22;19995;-88
2022/09/01 09:46:57;;;;;;;26.48;10.95;;;19.80;99.90;;;;;;6307080;22;19898;-88
2022/09/01 09:49:31;;;;;;;23.90;12.40;;;19.80;99.90;;;;;;6306529;22;19998;-88
2022/09/01 09:52:16;;;;;;;20.67;11.50;;;19.90;99.90;;;;;;6334284;22;20346;-89
2022/09/01 09:55:03;;;;;;;28.02;12.60;;;20.00;99.90;;;;;;6335163;22;19998;-89
2022/09/01 09:57:31;;;;;;;20.20;12.57;;;20.00;99.90;;;;;;6306605;22;20003;-89
2022/09/01 10:00:14;;;;;;;31.37;13.40;;;20.10;99.90;;;;;;6306359;22;20573;-88
2022/09/01 10:02:42;;;;;;;29.60;13.15;;;20.20;99.90;;;;;;6334229;22;20048;-88
2022/09/01 10:05:28;;;;;;;31.35;13.20;;;20.40;99.90;;;;;;6333999;22;20025;-87
2022/09/01 10:07:55;;;;;;;24.77;13.30;;;20.40;99.90;;;;;;6334055;22;20074;-87
2022/09/01 10:10:47;;;;;;;28.17;13.60;;;20.30;99.90;;;;;;6334147;22;20336;-87
2022/09/01 10:13:18;;;;;;;28.75;12.98;;;20.50;99.90;;;;;;6334962;22;19999;-88
2022/09/01 10:15:49;;;;;;;31.05;13.38;;;20.50;99.90;;;;;;6307042;22;19999;-87
2022/09/01 10:18:18;;;;;;;31.90;15.05;;;20.60;99.90;;;;;;6334529;22;20390;-88
2022/09/01 10:21:03;;;;;;;26.42;13.55;;;20.80;99.90;;;;;;6334645;22;20042;-87
2022/09/01 10:23:31;;;;;;;24.48;13.25;;;20.80;99.90;;;;;;6306004;22;20003;-89
2022/09/01 10:26:22;;;;;;;22.52;13.77;;;21.00;99.90;;;;;;6305959;22;20003;-88
2022/09/01 10:28:53;;;;;;;29.20;15.10;;;21.00;99.90;;;;;;6305850;22;19999;-90
2022/09/01 10:31:20;;;;;;;25.15;15.30;;;;;;;;;;6333936;22;19995;-88
2022/09/01 10:33:46;;;;;;;26.17;15.15;;;;;;;;;;6307088;22;20002;-89
2022/09/01 10:36:13;;;;;;;23.00;14.52;;;21.30;99.90;;;;;;6333782;22;19994;-89
2022/09/01 10:38:42;;;;;;;27.88;15.35;;;21.50;99.90;;;;;;6305895;22;20003;-88
2022/09/01 10:41:08;;;;;;;22.40;15.02;;;;;;;;;;6333468;22;20226;-88
2022/09/01 10:43:47;;;;;;;22.92;13.40;;;21.70;99.90;;;;;;6333890;22;19995;-87
2022/09/01 10:46:19;;;;;;;27.92;14.55;;;21.70;99.90;;;;;;6335219;22;19999;-87
2022/09/01 10:48:50;;;;;;;23.90;15.30;;;21.80;99.90;;;;;;6334858;22;20078;-87
2022/09/01 10:51:17;;;;;;;27.52;14.70;;;21.90;99.90;;;;;;6336399;22;20003;-90
2022/09/01 10:53:53;;;;;;;28.00;14.73;;;22.00;99.90;;;;;;6335722;22;20003;-87
2022/09/01 10:56:40;;;;;;;27.30;14.43;;;22.10;99.90;;;;;;6308773;22;20010;-87
2022/09/01 10:59:21;;;;;;;26.08;14.95;;;22.10;99.90;;;;;;6308222;22;19999;-87
2022/09/01 11:01:49;;;;;;;32.08;16.58;;;22.00;99.90;;;;;;6308903;22;20071;-87
2022/09/01 11:04:17;;;;;;;33.45;16.83;;;22.10;99.90;;;;;;6336644;22;19999;-88
2022/09/01 11:07:00;;;;;;;28.65;16.85;;;22.20;99.90;;;;;;6335678;22;20022;-89
2022/09/01 11:09:37;;;;;;;28.98;15.30;;;22.20;99.90;;;;;;6308006;22;20013;-87
2022/09/01 11:12:21;;;;;;;33.38;15.95;;;22.30;99.90;;;;;;6335403;22;19999;-88
2022/09/01 11:14:59;;;;;;;28.10;15.48;;;22.20;99.90;;;;;;6336714;22;20026;-87
2022/09/01 11:17:32;;;;;;;31.80;18.70;;;22.30;99.90;;;;;;6335825;22;20070;-87
2022/09/01 11:20:22;;;;;;;27.35;15.75;;;22.30;99.90;;;;;;6307653;22;20018;-87
2022/09/01 11:23:10;;;;;;;29.15;15.85;;;22.30;99.90;;;;;;6308799;22;20443;-87
2022/09/01 11:25:47;;;;;;;35.65;16.38;;;22.30;99.90;;;;;;6336142;22;20064;-89
2022/09/01 11:28:15;;;;;;;37.47;17.20;;;22.40;99.90;;;;;;6336287;22;19999;-90
2022/09/01 11:31:12;;;;;;;26.80;15.95;;;22.40;99.90;;;;;;6336562;22;20003;-88
2022/09/01 11:34:12;;;;;;;23.73;14.73;;;22.50;99.90;;;;;;6347656;22;20006;-90
2022/09/01 11:36:46;;;;;;;27.52;16.52;;;22.80;99.90;;;;;;6364501;22;19983;-88
2022/09/01 11:39:17;;;;;;;34.13;25.40;;;22.90;99.90;;;;;;6337037;22;20007;-88
2022/09/01 11:41:55;;;;;;;22.58;12.02;;;23.00;99.90;;;;;;6352264;22;20010;-87
2022/09/01 11:44:49;;;;;;;17.65;10.13;;;23.10;99.90;;;;;;6343656;22;20001;-88
2022/09/01 11:47:31;;;;;;;19.70;10.55;;;23.00;99.90;;;;;;6307979;22;20089;-90
2022/09/01 11:50:01;;;;;;;53.88;36.42;;;23.10;99.90;;;;;;6335690;22;20066;-90
2022/09/01 11:52:33;;;;;;;29.30;15.50;;;23.20;99.90;;;;;;6335509;22;20013;-91
2022/09/01 11:54:59;;;;;;;24.98;15.20;;;23.20;99.90;;;;;;6307733;22;20031;-88
2022/09/01 11:57:30;;;;;;;23.65;16.25;;;23.00;99.90;;;;;;6335244;22;19998;-88
2022/09/01 11:59:58;;;;;;;26.83;16.60;;;23.10;99.90;;;;;;6307334;22;20021;-88
2022/09/01 12:02:48;;;;;;;34.08;16.05;;;23.20;99.90;;;;;;6335223;22;19995;-88
2022/09/01 12:05:33;;;;;;;0.10;0.10;;;22.90;99.90;;;;;;6290524;22;20002;-87
2022/09/01 12:08:04;;;;;;;0.00;0.00;;;23.00;99.90;;;;;;6335238;22;20002;-88
2022/09/01 12:10:34;;;;;;;0.00;0.00;;;23.20;99.90;;;;;;6335181;22;20002;-88
2022/09/01 12:13:19;;;;;;;22.02;10.80;;;23.40;99.90;;;;;;6335300;22;20006;-88
2022/09/01 12:15:56;;;;;;;19.95;10.45;;;23.50;99.90;;;;;;6335213;22;20384;-88
2022/09/01 12:18:26;;;;;;;15.38;10.75;;;23.40;99.90;;;;;;6336140;22;19999;-91
2022/09/01 12:20:56;;;;;;;20.40;10.50;;;23.20;99.90;;;;;;6308408;22;20014;-88
2022/09/01 12:23:25;;;;;;;17.48;11.55;;;23.20;99.90;;;;;;6336299;22;20048;-88
2022/09/01 12:25:56;;;;;;;14.77;9.55;;;23.20;99.90;;;;;;6336161;22;20010;-87
2022/09/01 12:28:25;;;;;;;24.58;10.45;;;23.20;99.90;;;;;;6308884;22;20081;-90
2022/09/01 12:30:54;;;;;;;15.57;9.63;;;22.10;99.90;;;;;;6308422;22;20462;-91
2022/09/01 12:33:20;;;;;;;16.85;8.90;;;23.50;99.90;;;;;;6308603;22;20003;-89
2022/09/01 12:35:46;;;;;;;20.80;7.88;;;23.50;99.90;;;;;;6335302;22;19999;-88
2022/09/01 12:38:21;;;;;;;16.27;6.80;;;23.60;99.90;;;;;;6335385;22;19995;-89
2022/09/01 12:40:56;;;;;;;12.82;6.38;;;23.70;99.90;;;;;;6335304;22;20038;-88
2022/09/01 12:43:35;;;;;;;15.18;6.85;;;23.60;99.90;;;;;;6336467;22;20002;-92
2022/09/01 12:46:03;;;;;;;11.65;5.88;;;23.50;99.90;;;;;;6335152;22;20044;-87
2022/09/01 12:48:35;;;;;;;20.88;6.03;;;23.40;99.90;;;;;;6308111;22;20005;-88
2022/09/01 12:51:14;;;;;;;10.25;6.03;;;23.20;99.90;;;;;;6335450;22;20002;-88
2022/09/01 12:53:50;;;;;;;12.00;6.63;;;23.30;99.90;;;;;;6335379;22;20009;-88
2022/09/01 12:56:23;;;;;;;9.68;6.70;;;23.60;99.90;;;;;;6335065;22;20003;-87
2022/09/01 12:58:53;;;;;;;13.23;7.78;;;23.40;99.90;;;;;;6335022;22;20384;-88
2022/09/01 13:01:31;;;;;;;13.00;7.10;;;23.60;99.90;;;;;;6307345;22;20011;-88
2022/09/01 13:04:13;;;;;;;10.57;6.97;;;23.60;99.90;;;;;;6334927;22;20002;-88